Moon Township, Pennsylvania
Current Conditions -  °F | °C
As of 5:51 PM on Thursday 23 Oct 2014 (Local Time) from KPIT Reporting Station
Few Clouds Few Clouds  
Wind Chill: 14°   Ceiling: Unl
Heat Index: 14°   Visibility: 10mi
Dew Point:   Wind: 15mph
Humidity: 56%   Direction: 330°NNW
Pressure: 30.05"   Gusts: NA
Location:  40.5042°N, 80.1934°W
Report Text: KPIT 232151Z 33013KT 10SM FEW043 14/06 A3005 RMK AO2 SLP185 T01440056
Loading
Personal Weather Stations






























Interactive Weather Map
Tropical Storm Tracking
New forecast layout! Learn more

10-Day Weather Forecast

Advertisements
Track Severe Weather on mobile